sensor_id;sensor_type;location;lat;lon;timestamp;P1;durP1;ratioP1;P2;durP2;ratioP2
21412;SDS011;10867;45.084;5.732;2024-02-23T03:22:14;0.93;;;0.50;;
21412;SDS011;10867;45.084;5.732;2024-02-23T03:25:42;0.65;;;0.40;;
21412;SDS011;10867;45.084;5.732;2024-02-23T04:50:41;1.50;;;0.90;;
21412;SDS011;10867;45.084;5.732;2024-02-23T06:17:14;8.52;;;7.70;;
21412;SDS011;10867;45.084;5.732;2024-02-23T06:20:46;5.93;;;5.07;;
21412;SDS011;10867;45.084;5.732;2024-02-23T06:27:25;4.43;;;4.03;;
21412;SDS011;10867;45.084;5.732;2024-02-23T06:29:55;4.43;;;3.83;;
21412;SDS011;10867;45.084;5.732;2024-02-23T06:32:40;5.60;;;3.50;;
21412;SDS011;10867;45.084;5.732;2024-02-23T06:35:39;5.05;;;4.47;;
21412;SDS011;10867;45.084;5.732;2024-02-23T06:38:06;4.85;;;4.20;;
21412;SDS011;10867;45.084;5.732;2024-02-23T06:40:40;6.20;;;4.50;;
21412;SDS011;10867;45.084;5.732;2024-02-23T06:43:14;6.13;;;5.00;;
21412;SDS011;10867;45.084;5.732;2024-02-23T06:52:13;5.18;;;4.68;;
21412;SDS011;10867;45.084;5.732;2024-02-23T06:57:44;5.70;;;5.10;;
21412;SDS011;10867;45.084;5.732;2024-02-23T07:07:21;11.93;;;9.77;;
21412;SDS011;10867;45.084;5.732;2024-02-23T07:13:23;21.83;;;15.65;;
21412;SDS011;10867;45.084;5.732;2024-02-23T07:16:31;19.65;;;15.05;;
21412;SDS011;10867;45.084;5.732;2024-02-23T07:22:12;13.55;;;10.98;;
21412;SDS011;10867;45.084;5.732;2024-02-23T07:28:49;33.05;;;21.73;;
21412;SDS011;10867;45.084;5.732;2024-02-23T10:42:48;3.42;;;2.00;;
21412;SDS011;10867;45.084;5.732;2024-02-23T11:09:58;2.97;;;1.17;;
21412;SDS011;10867;45.084;5.732;2024-02-23T11:36:01;3.20;;;0.93;;
21412;SDS011;10867;45.084;5.732;2024-02-23T11:42:08;1.70;;;0.90;;
21412;SDS011;10867;45.084;5.732;2024-02-23T13:46:18;1.52;;;0.63;;
21412;SDS011;10867;45.084;5.732;2024-02-23T13:49:25;1.73;;;0.87;;
21412;SDS011;10867;45.084;5.732;2024-02-23T18:06:26;3.03;;;1.77;;
21412;SDS011;10867;45.084;5.732;2024-02-23T18:08:55;1.92;;;1.10;;
21412;SDS011;10867;45.084;5.732;2024-02-23T18:11:26;1.93;;;1.40;;
21412;SDS011;10867;45.084;5.732;2024-02-23T18:14:33;5.80;;;3.63;;
21412;SDS011;10867;45.084;5.732;2024-02-23T18:17:41;2.75;;;1.90;;
21412;SDS011;10867;45.084;5.732;2024-02-23T18:26:55;4.20;;;3.80;;
21412;SDS011;10867;45.084;5.732;2024-02-23T18:29:55;1.40;;;0.93;;
21412;SDS011;10867;45.084;5.732;2024-02-23T18:32:41;1.90;;;1.10;;
21412;SDS011;10867;45.084;5.732;2024-02-23T18:35:15;2.13;;;1.00;;
21412;SDS011;10867;45.084;5.732;2024-02-23T18:54:10;2.40;;;1.77;;
21412;SDS011;10867;45.084;5.732;2024-02-23T18:56:36;1.85;;;1.20;;
21412;SDS011;10867;45.084;5.732;2024-02-23T18:59:05;4.82;;;3.08;;
21412;SDS011;10867;45.084;5.732;2024-02-23T19:01:31;3.60;;;2.80;;
21412;SDS011;10867;45.084;5.732;2024-02-23T19:03:57;4.10;;;3.50;;
21412;SDS011;10867;45.084;5.732;2024-02-23T19:06:23;4.78;;;3.40;;
21412;SDS011;10867;45.084;5.732;2024-02-23T19:08:50;3.35;;;2.00;;
21412;SDS011;10867;45.084;5.732;2024-02-23T19:11:16;2.70;;;2.05;;
21412;SDS011;10867;45.084;5.732;2024-02-23T19:13:42;3.33;;;1.90;;
21412;SDS011;10867;45.084;5.732;2024-02-23T19:16:17;2.20;;;1.90;;
21412;SDS011;10867;45.084;5.732;2024-02-23T19:22:05;4.28;;;3.72;;
21412;SDS011;10867;45.084;5.732;2024-02-23T19:41:27;1.65;;;1.00;;
21412;SDS011;10867;45.084;5.732;2024-02-23T19:57:56;5.07;;;4.60;;
21412;SDS011;10867;45.084;5.732;2024-02-23T20:18:09;2.72;;;1.30;;
21412;SDS011;10867;45.084;5.732;2024-02-23T20:20:43;2.30;;;1.40;;
21412;SDS011;10867;45.084;5.732;2024-02-23T20:23:51;2.22;;;1.20;;
21412;SDS011;10867;45.084;5.732;2024-02-23T20:43:53;1.27;;;0.93;;
21412;SDS011;10867;45.084;5.732;2024-02-23T20:46:55;1.85;;;1.30;;
21412;SDS011;10867;45.084;5.732;2024-02-23T20:56:21;2.42;;;1.15;;
21412;SDS011;10867;45.084;5.732;2024-02-23T20:59:17;1.13;;;0.90;;
21412;SDS011;10867;45.084;5.732;2024-02-23T21:05:30;2.25;;;0.95;;
21412;SDS011;10867;45.084;5.732;2024-02-23T21:08:06;1.37;;;1.10;;
21412;SDS011;10867;45.084;5.732;2024-02-23T21:14:06;1.37;;;0.90;;
21412;SDS011;10867;45.084;5.732;2024-02-23T21:16:46;1.58;;;1.20;;
21412;SDS011;10867;45.084;5.732;2024-02-23T21:19:16;1.30;;;1.10;;
21412;SDS011;10867;45.084;5.732;2024-02-23T21:21:43;1.52;;;1.00;;
21412;SDS011;10867;45.084;5.732;2024-02-23T21:24:16;1.40;;;1.10;;
21412;SDS011;10867;45.084;5.732;2024-02-23T21:26:43;1.90;;;1.30;;
21412;SDS011;10867;45.084;5.732;2024-02-23T21:29:11;2.17;;;1.40;;
21412;SDS011;10867;45.084;5.732;2024-02-23T21:37:25;1.80;;;1.50;;
21412;SDS011;10867;45.084;5.732;2024-02-23T21:40:19;2.72;;;1.77;;
21412;SDS011;10867;45.084;5.732;2024-02-23T21:43:13;2.45;;;1.35;;
21412;SDS011;10867;45.084;5.732;2024-02-23T21:46:02;1.70;;;1.20;;
21412;SDS011;10867;45.084;5.732;2024-02-23T21:49:01;3.00;;;2.60;;
21412;SDS011;10867;45.084;5.732;2024-02-23T21:51:34;2.80;;;2.40;;
21412;SDS011;10867;45.084;5.732;2024-02-23T21:54:21;1.95;;;1.40;;
21412;SDS011;10867;45.084;5.732;2024-02-23T21:57:14;2.42;;;1.30;;
21412;SDS011;10867;45.084;5.732;2024-02-23T21:59:48;1.30;;;0.88;;
21412;SDS011;10867;45.084;5.732;2024-02-23T22:02:24;1.60;;;0.80;;
21412;SDS011;10867;45.084;5.732;2024-02-23T22:04:56;1.20;;;0.70;;
21412;SDS011;10867;45.084;5.732;2024-02-23T22:07:26;2.03;;;0.70;;
21412;SDS011;10867;45.084;5.732;2024-02-23T22:09:52;1.02;;;0.60;;
21412;SDS011;10867;45.084;5.732;2024-02-23T22:12:22;2.00;;;0.77;;
21412;SDS011;10867;45.084;5.732;2024-02-23T22:14:54;2.25;;;1.15;;
21412;SDS011;10867;45.084;5.732;2024-02-23T22:17:24;1.30;;;0.85;;
21412;SDS011;10867;45.084;5.732;2024-02-23T22:19:50;1.02;;;0.75;;
21412;SDS011;10867;45.084;5.732;2024-02-23T22:22:23;0.67;;;0.67;;
21412;SDS011;10867;45.084;5.732;2024-02-23T22:24:50;1.17;;;0.60;;
21412;SDS011;10867;45.084;5.732;2024-02-23T22:27:24;0.85;;;0.55;;
21412;SDS011;10867;45.084;5.732;2024-02-23T22:29:52;1.00;;;0.70;;
21412;SDS011;10867;45.084;5.732;2024-02-23T22:32:21;1.08;;;0.68;;
21412;SDS011;10867;45.084;5.732;2024-02-23T22:34:49;1.67;;;0.90;;
21412;SDS011;10867;45.084;5.732;2024-02-23T22:37:16;1.02;;;0.80;;
21412;SDS011;10867;45.084;5.732;2024-02-23T22:39:44;0.95;;;0.60;;
21412;SDS011;10867;45.084;5.732;2024-02-23T22:42:12;1.47;;;0.80;;
21412;SDS011;10867;45.084;5.732;2024-02-23T22:44:41;1.00;;;0.70;;
21412;SDS011;10867;45.084;5.732;2024-02-23T22:47:09;0.80;;;0.65;;
21412;SDS011;10867;45.084;5.732;2024-02-23T22:50:03;0.90;;;0.63;;
21412;SDS011;10867;45.084;5.732;2024-02-23T22:52:32;1.30;;;0.60;;
21412;SDS011;10867;45.084;5.732;2024-02-23T22:55:01;0.98;;;0.70;;
21412;SDS011;10867;45.084;5.732;2024-02-23T22:57:35;1.25;;;0.93;;
21412;SDS011;10867;45.084;5.732;2024-02-23T23:00:14;1.20;;;0.98;;
21412;SDS011;10867;45.084;5.732;2024-02-23T23:02:50;1.73;;;1.20;;
21412;SDS011;10867;45.084;5.732;2024-02-23T23:05:41;2.35;;;1.60;;
21412;SDS011;10867;45.084;5.732;2024-02-23T23:08:24;1.58;;;1.20;;
21412;SDS011;10867;45.084;5.732;2024-02-23T23:11:00;1.92;;;1.50;;
21412;SDS011;10867;45.084;5.732;2024-02-23T23:13:29;1.90;;;1.50;;
21412;SDS011;10867;45.084;5.732;2024-02-23T23:16:16;7.13;;;5.68;;
21412;SDS011;10867;45.084;5.732;2024-02-23T23:18:49;0.52;;;0.50;;
21412;SDS011;10867;45.084;5.732;2024-02-23T23:21:54;2.93;;;2.33;;
21412;SDS011;10867;45.084;5.732;2024-02-23T23:25:03;6.73;;;5.23;;
21412;SDS011;10867;45.084;5.732;2024-02-23T23:27:45;4.05;;;3.40;;
21412;SDS011;10867;45.084;5.732;2024-02-23T23:33:52;2.40;;;1.90;;
21412;SDS011;10867;45.084;5.732;2024-02-23T23:36:46;1.85;;;1.13;;
21412;SDS011;10867;45.084;5.732;2024-02-23T23:39:27;1.30;;;1.02;;
21412;SDS011;10867;45.084;5.732;2024-02-23T23:42:11;2.92;;;2.00;;
21412;SDS011;10867;45.084;5.732;2024-02-23T23:44:57;0.63;;;0.63;;
21412;SDS011;10867;45.084;5.732;2024-02-23T23:50:44;0.55;;;0.52;;
21412;SDS011;10867;45.084;5.732;2024-02-23T23:53:15;1.17;;;0.60;;
21412;SDS011;10867;45.084;5.732;2024-02-23T23:56:02;0.70;;;0.63;;
21412;SDS011;10867;45.084;5.732;2024-02-23T23:58:51;0.70;;;0.60;;
